createdAt,value
2022-10-05T00:04:38.140Z,8.30
2022-10-05T00:09:41.441Z,8.20
2022-10-05T00:14:44.568Z,8.20
2022-10-05T00:19:52.140Z,8.20
2022-10-05T00:24:55.229Z,8.20
2022-10-05T00:29:58.414Z,8.10
2022-10-05T00:35:01.396Z,8.30
2022-10-05T00:40:04.370Z,8.10
2022-10-05T00:45:07.987Z,8.20
2022-10-05T00:50:13.262Z,8.20
2022-10-05T00:55:17.268Z,8.30
2022-10-05T01:00:21.193Z,8.40
2022-10-05T01:05:24.331Z,8.30
2022-10-05T01:10:27.673Z,8.30
2022-10-05T01:15:30.864Z,8.20
2022-10-05T01:20:34.070Z,8.20
2022-10-05T01:25:37.213Z,8.30
2022-10-05T01:30:40.651Z,8.30
2022-10-05T01:35:43.661Z,8.30
2022-10-05T01:40:46.991Z,8.40
2022-10-05T01:45:50.050Z,8.30
2022-10-05T01:50:53.060Z,8.30
2022-10-05T01:55:56.298Z,8.30
2022-10-05T02:00:59.330Z,8.30
2022-10-05T02:06:02.707Z,8.40
2022-10-05T02:11:05.754Z,8.40
2022-10-05T02:16:09.130Z,8.30
2022-10-05T02:21:13.032Z,8.30
2022-10-05T02:26:17.286Z,8.30
2022-10-05T02:31:21.781Z,8.30
2022-10-05T02:36:24.822Z,8.30
2022-10-05T02:41:28.209Z,8.20
2022-10-05T02:46:31.588Z,8.20
2022-10-05T02:51:34.812Z,8.10
2022-10-05T02:56:38.098Z,8.00
2022-10-05T03:01:41.398Z,8.00
2022-10-05T03:06:45.161Z,8.00
2022-10-05T03:11:48.443Z,8.00
2022-10-05T03:16:51.827Z,7.90
2022-10-05T03:21:54.946Z,7.90
2022-10-05T03:26:57.992Z,7.80
2022-10-05T03:32:01.046Z,7.80
2022-10-05T03:37:04.075Z,7.70
2022-10-05T03:42:07.198Z,7.60
2022-10-05T03:47:10.692Z,7.60
2022-10-05T03:52:13.996Z,7.50
2022-10-05T03:57:17.468Z,7.50
2022-10-05T04:02:23.952Z,7.40
2022-10-05T04:07:27.014Z,7.40
2022-10-05T04:12:31.229Z,7.40
2022-10-05T04:17:35.765Z,7.30
2022-10-05T04:22:39.352Z,7.30
2022-10-05T04:27:42.832Z,7.50
2022-10-05T04:32:46.228Z,7.50
2022-10-05T04:37:49.342Z,7.80
2022-10-05T04:42:56.007Z,7.30
2022-10-05T04:48:00.048Z,7.30
2022-10-05T04:53:03.509Z,7.80
2022-10-05T04:58:06.998Z,7.30
2022-10-05T05:03:10.113Z,7.60
2022-10-05T05:08:13.131Z,7.20
2022-10-05T05:13:16.099Z,7.20
2022-10-05T05:18:19.040Z,7.20
2022-10-05T05:23:22.379Z,7.30
2022-10-05T05:28:28.670Z,7.30
2022-10-05T05:33:31.934Z,7.40
2022-10-05T05:38:34.952Z,7.40
2022-10-05T05:43:37.836Z,7.50
2022-10-05T05:48:42.617Z,7.60
2022-10-05T05:53:46.507Z,7.70
2022-10-05T05:58:49.621Z,7.80
2022-10-05T06:03:52.737Z,7.90
2022-10-05T06:08:56.502Z,8.00
2022-10-05T06:13:59.279Z,8.20
2022-10-05T06:19:02.069Z,8.40
2022-10-05T06:24:05.527Z,8.60
2022-10-05T06:29:08.286Z,8.80
2022-10-05T07:50:08.025Z,12.80
2022-10-05T07:55:11.679Z,12.90
2022-10-05T08:00:15.088Z,13.40
2022-10-05T08:05:17.901Z,13.20
2022-10-05T08:10:20.647Z,14.00
2022-10-05T08:15:23.606Z,14.30
2022-10-05T08:20:26.890Z,14.60
2022-10-05T08:30:33.022Z,14.40
2022-10-05T08:35:35.826Z,15.40
2022-10-05T08:40:40.306Z,15.50
2022-10-05T08:45:43.125Z,15.90
2022-10-05T08:50:48.779Z,16.10
2022-10-05T09:05:58.490Z,17.20
2022-10-05T09:16:05.377Z,17.70
2022-10-05T09:21:08.253Z,17.80
2022-10-05T09:26:11.255Z,17.90
2022-10-05T09:31:14.105Z,18.10
2022-10-05T10:16:49.779Z,19.40
2022-10-05T10:21:53.594Z,19.40
2022-10-05T10:32:00.633Z,20.00
2022-10-05T10:42:08.898Z,20.20
2022-10-05T10:52:15.899Z,20.60
2022-10-05T10:57:18.988Z,20.70
2022-10-05T14:35:22.177Z,23.00
2022-10-05T15:21:11.034Z,22.30
2022-10-05T18:14:29.176Z,16.20
2022-10-05T18:19:33.456Z,16.20
2022-10-05T18:24:36.596Z,16.00
2022-10-05T18:29:57.134Z,16.00
2022-10-05T18:35:05.971Z,15.90
2022-10-05T18:40:10.428Z,15.90
2022-10-05T18:45:18.843Z,15.90
2022-10-05T18:50:22.188Z,15.80
2022-10-05T18:55:25.130Z,15.70
2022-10-05T19:00:28.242Z,15.60
2022-10-05T19:05:48.362Z,15.50
2022-10-05T19:10:51.868Z,15.40
2022-10-05T19:15:54.960Z,15.20
2022-10-05T19:20:57.855Z,15.10
2022-10-05T19:26:02.547Z,15.00
2022-10-05T19:31:05.356Z,14.90
2022-10-05T19:36:08.106Z,14.80
2022-10-05T19:41:11.371Z,14.60
2022-10-05T19:46:19.106Z,14.60
2022-10-05T19:51:22.934Z,14.50
